Girouxville, Canada
Current Conditions -  °F | °C
As of 10:00 AM on Saturday 20 Dec 2014 (Local Time) from CYPE Reporting Station
Broken Clouds Broken Clouds  
Wind Chill:   Ceiling: 25000
Heat Index: 14°   Visibility: 15mi
Dew Point: 10°   Wind: 5mph
Humidity: 86%   Direction: 270°W
Pressure: 29.53"   Gusts: NA
Location:  55.75°N, 117.33°W
Report Text: CYPE 201700Z 27004KT 15SM BKN250 M10/M12 A2953 RMK CI6 SLP042
Loading
Personal Weather Stations






























Interactive Weather Map New forecast layout! Learn more

10-Day Weather Forecast

Advertisements
Track Severe Weather on mobile